Time;durP1;ratioP1;P1;durP2;ratioP2;P2;SDS_P1;SDS_P2;PMS_P1;PMS_P2;Temp;Humidity;BMP_temperature;BMP_pressure;BME280_temperature;BME280_humidity;BME280_pressure;Samples;Min_cycle;Max_cycle;Signal;HPM_P1;HPM_P2
2023/10/21 00:00:52;;;;;;;6.00;1.42;;;18.80;65.70;;;;;;5092265;28;20226;-63
2023/10/21 00:03:19;;;;;;;3.00;1.23;;;18.80;65.70;;;;;;5091876;28;20190;-63
2023/10/21 00:05:46;;;;;;;3.03;1.40;;;18.80;65.70;;;;;;5092746;28;20214;-62
2023/10/21 00:08:13;;;;;;;4.38;1.63;;;18.80;65.70;;;;;;5092636;28;20282;-61
2023/10/21 00:10:40;;;;;;;3.03;1.40;;;18.80;65.70;;;;;;5092348;28;20624;-62
2023/10/21 00:13:09;;;;;;;3.28;1.30;;;18.80;65.70;;;;;;5091981;28;20316;-64
2023/10/21 00:15:36;;;;;;;3.20;1.35;;;18.80;65.60;;;;;;5092466;28;20224;-61
2023/10/21 00:18:03;;;;;;;3.33;1.10;;;18.80;65.60;;;;;;5092006;28;20220;-60
2023/10/21 00:20:41;;;;;;;3.50;1.30;;;18.80;65.70;;;;;;5092530;28;20738;-62
2023/10/21 00:23:08;;;;;;;4.18;1.60;;;18.80;65.60;;;;;;5092340;28;20281;-63
2023/10/21 00:25:35;;;;;;;3.97;1.50;;;18.80;65.60;;;;;;5092265;28;20301;-60
2023/10/21 00:28:04;;;;;;;3.20;1.40;;;18.80;65.60;;;;;;5092035;28;20190;-63
2023/10/21 00:30:32;;;;;;;3.13;1.15;;;18.80;65.60;;;;;;5092505;28;20225;-62
2023/10/21 00:32:59;;;;;;;3.90;1.40;;;18.80;65.50;;;;;;5091798;28;20321;-60
2023/10/21 00:35:26;;;;;;;5.18;1.50;;;18.80;65.50;;;;;;5092390;28;20214;-64
2023/10/21 00:37:53;;;;;;;3.80;1.55;;;18.80;65.60;;;;;;5092247;28;20201;-61
2023/10/21 00:40:21;;;;;;;4.57;1.40;;;18.80;65.60;;;;;;5092002;28;20220;-61
2023/10/21 00:42:48;;;;;;;3.42;1.30;;;18.80;65.50;;;;;;5092325;28;20201;-63
2023/10/21 00:45:15;;;;;;;5.93;1.42;;;18.80;65.50;;;;;;5094854;28;20213;-62
2023/10/21 00:47:45;;;;;;;4.35;1.73;;;18.80;65.50;;;;;;5095576;28;20194;-64
2023/10/21 00:50:12;;;;;;;4.22;1.42;;;18.80;65.50;;;;;;5095957;28;20296;-63
2023/10/21 00:52:46;;;;;;;4.80;1.70;;;18.80;65.50;;;;;;5095621;28;20190;-63
2023/10/21 00:55:14;;;;;;;4.70;1.25;;;18.80;65.40;;;;;;5095430;28;20222;-62
2023/10/21 00:57:41;;;;;;;3.22;1.25;;;18.80;65.40;;;;;;5096144;28;20225;-61
2023/10/21 01:00:11;;;;;;;5.15;1.27;;;18.80;66.10;;;;;;5096033;28;20220;-61
2023/10/21 01:02:41;;;;;;;4.25;1.98;;;18.70;65.30;;;;;;5095532;28;20697;-63
2023/10/21 01:05:12;;;;;;;3.83;1.35;;;18.70;65.30;;;;;;5096077;28;20214;-62
2023/10/21 01:07:44;;;;;;;5.53;1.48;;;18.70;65.20;;;;;;5095497;28;20196;-62
2023/10/21 01:10:12;;;;;;;4.60;1.40;;;18.70;65.20;;;;;;5095532;28;20214;-62
2023/10/21 01:12:39;;;;;;;6.13;1.60;;;18.70;65.20;;;;;;5095668;28;20197;-61
2023/10/21 01:15:08;;;;;;;4.18;1.48;;;18.80;65.30;;;;;;5095464;28;20614;-63
2023/10/21 01:17:35;;;;;;;2.92;1.10;;;18.70;65.20;;;;;;5094975;28;20273;-62
2023/10/21 01:20:06;;;;;;;4.95;1.40;;;18.70;65.10;;;;;;5095703;28;20275;-61
2023/10/21 01:22:34;;;;;;;7.80;1.20;;;18.70;65.20;;;;;;5095213;28;20190;-63
2023/10/21 01:25:04;;;;;;;4.55;1.48;;;18.70;65.10;;;;;;5094869;28;20222;-63
2023/10/21 01:27:31;;;;;;;4.45;1.38;;;18.70;65.10;;;;;;5095393;28;20190;-61
2023/10/21 01:29:58;;;;;;;3.55;1.13;;;18.70;65.10;;;;;;5095169;28;20309;-63
2023/10/21 01:32:25;;;;;;;3.92;1.30;;;18.70;65.10;;;;;;5094662;28;20703;-63
2023/10/21 01:34:52;;;;;;;3.53;1.13;;;18.70;65.10;;;;;;5095242;28;20239;-64
2023/10/21 01:37:20;;;;;;;3.10;1.20;;;18.70;65.00;;;;;;5095009;28;20186;-64
2023/10/21 01:39:47;;;;;;;4.57;1.63;;;18.70;65.00;;;;;;5094492;28;20634;-62
2023/10/21 01:42:16;;;;;;;5.32;1.50;;;18.70;65.00;;;;;;5095211;28;20189;-63
2023/10/21 01:44:43;;;;;;;6.82;1.45;;;18.70;65.00;;;;;;5095120;28;20301;-62
2023/10/21 01:47:10;;;;;;;5.07;1.40;;;18.70;65.00;;;;;;5094686;28;20190;-63
2023/10/21 01:49:38;;;;;;;4.65;1.45;;;18.70;64.90;;;;;;5094677;28;20210;-59
2023/10/21 01:52:05;;;;;;;5.68;1.40;;;18.70;64.90;;;;;;5095009;28;20183;-61
2023/10/21 01:54:32;;;;;;;4.88;1.60;;;18.70;64.90;;;;;;5094172;28;20731;-60
2023/10/21 01:56:59;;;;;;;3.33;1.10;;;18.70;64.80;;;;;;5093823;28;20269;-63
2023/10/21 01:59:28;;;;;;;3.95;1.30;;;18.70;64.80;;;;;;5094877;28;20221;-61
2023/10/21 02:01:55;;;;;;;5.40;1.40;;;18.70;64.80;;;;;;5094134;28;20301;-63
2023/10/21 02:04:22;;;;;;;6.28;1.27;;;18.70;64.70;;;;;;5094937;28;20214;-63
2023/10/21 02:06:49;;;;;;;4.40;1.20;;;18.70;64.70;;;;;;5094754;28;20232;-59
2023/10/21 02:09:17;;;;;;;4.78;1.20;;;18.70;64.70;;;;;;5093974;28;20313;-62
2023/10/21 02:11:44;;;;;;;3.53;1.45;;;18.70;64.70;;;;;;5094579;28;20189;-61
2023/10/21 02:14:11;;;;;;;5.40;1.65;;;18.70;64.60;;;;;;5094497;28;20272;-61
2023/10/21 02:16:39;;;;;;;3.78;1.27;;;18.70;64.60;;;;;;5093899;28;20186;-62
2023/10/21 02:19:06;;;;;;;4.90;1.40;;;18.70;64.60;;;;;;5094423;28;20613;-63
2023/10/21 02:21:33;;;;;;;4.60;1.35;;;18.70;64.60;;;;;;5094192;28;20273;-62
2023/10/21 02:24:00;;;;;;;3.15;1.65;;;18.70;64.60;;;;;;5093974;28;20190;-63
2023/10/21 02:26:27;;;;;;;4.85;1.15;;;18.70;64.60;;;;;;5094367;28;20269;-63
2023/10/21 02:28:55;;;;;;;4.18;1.30;;;18.70;64.60;;;;;;5094145;28;20222;-62
2023/10/21 02:31:22;;;;;;;4.20;1.30;;;18.70;64.60;;;;;;5093820;28;20194;-63
2023/10/21 02:33:51;;;;;;;2.42;1.23;;;18.70;64.60;;;;;;5094231;28;20305;-63
2023/10/21 02:36:18;;;;;;;6.70;1.65;;;18.70;64.60;;;;;;5094269;28;20296;-62
2023/10/21 02:38:45;;;;;;;3.33;1.40;;;18.70;64.60;;;;;;5093553;28;20193;-63
2023/10/21 02:41:12;;;;;;;4.03;1.20;;;18.70;64.80;;;;;;5094297;28;20214;-62
2023/10/21 02:43:39;;;;;;;2.50;0.90;;;18.70;64.60;;;;;;5093916;28;20265;-63
2023/10/21 02:46:10;;;;;;;5.28;1.88;;;18.60;64.50;;;;;;5093482;28;20217;-58
2023/10/21 02:48:37;;;;;;;3.50;1.40;;;18.60;64.50;;;;;;5093885;28;20182;-62
2023/10/21 02:51:11;;;;;;;4.05;1.30;;;18.60;64.50;;;;;;5094096;28;20218;-63
2023/10/21 02:53:39;;;;;;;4.65;1.48;;;18.60;64.50;;;;;;5093141;28;20710;-62
2023/10/21 02:56:06;;;;;;;4.45;1.40;;;18.60;64.50;;;;;;5093781;28;20220;-64
2023/10/21 02:58:34;;;;;;;4.95;1.80;;;18.70;64.60;;;;;;5091749;28;20532;-63
2023/10/21 03:01:04;;;;;;;7.32;1.60;;;18.60;64.40;;;;;;5113300;28;20297;-62
2023/10/21 03:03:31;;;;;;;5.03;1.70;;;18.60;64.50;;;;;;5113926;28;20685;-62
2023/10/21 03:05:59;;;;;;;4.45;1.45;;;18.60;64.50;;;;;;5114367;28;20307;-60
2023/10/21 03:08:27;;;;;;;2.60;1.10;;;18.60;64.50;;;;;;5113528;28;20194;-64
2023/10/21 03:10:55;;;;;;;2.63;1.13;;;18.60;64.40;;;;;;5113706;28;20577;-61
2023/10/21 03:13:23;;;;;;;4.07;1.08;;;18.60;64.50;;;;;;5113691;28;20202;-62
2023/10/21 03:15:50;;;;;;;6.30;1.30;;;18.60;64.50;;;;;;5113244;28;20843;-63
2023/10/21 03:18:17;;;;;;;4.72;1.40;;;18.60;64.40;;;;;;5113326;28;20276;-63
2023/10/21 03:20:44;;;;;;;4.25;1.40;;;18.60;64.50;;;;;;5113838;28;20300;-61
2023/10/21 03:23:12;;;;;;;5.03;1.50;;;18.60;64.50;;;;;;5112878;28;20190;-62
2023/10/21 03:25:40;;;;;;;5.50;1.70;;;18.60;64.50;;;;;;5113704;28;20285;-62
2023/10/21 03:28:07;;;;;;;4.57;1.23;;;18.60;64.50;;;;;;5113538;28;20201;-62
2023/10/21 03:30:34;;;;;;;5.00;1.60;;;18.60;64.50;;;;;;5113035;28;20775;-62
2023/10/21 03:33:02;;;;;;;3.40;1.27;;;18.60;64.40;;;;;;5113388;28;20192;-61
2023/10/21 03:35:29;;;;;;;3.60;1.35;;;18.60;64.50;;;;;;5113096;28;20627;-63
2023/10/21 03:37:56;;;;;;;4.90;1.58;;;18.60;64.40;;;;;;5112987;28;20192;-61
2023/10/21 03:40:23;;;;;;;4.30;1.40;;;18.60;64.50;;;;;;5113066;28;20244;-63
2023/10/21 03:42:52;;;;;;;5.80;1.40;;;18.60;64.50;;;;;;5113270;28;20189;-63
2023/10/21 03:45:19;;;;;;;4.22;1.55;;;18.60;64.40;;;;;;5112760;28;20585;-62
2023/10/21 03:47:47;;;;;;;4.63;1.55;;;18.60;64.50;;;;;;5113118;28;20186;-60
2023/10/21 03:50:14;;;;;;;6.05;1.60;;;18.60;64.50;;;;;;5112864;28;20682;-63
2023/10/21 03:52:41;;;;;;;7.10;1.33;;;18.60;64.50;;;;;;5112710;28;20273;-62
2023/10/21 03:55:09;;;;;;;4.80;1.30;;;18.60;64.50;;;;;;5112732;28;20323;-62
2023/10/21 03:57:36;;;;;;;4.85;1.52;;;18.60;64.40;;;;;;5113106;28;20250;-63
2023/10/21 04:00:07;;;;;;;2.70;1.33;;;18.60;64.40;;;;;;5112751;28;20296;-61
2023/10/21 04:02:34;;;;;;;4.50;1.52;;;18.60;64.50;;;;;;5112472;28;20236;-62
2023/10/21 04:05:01;;;;;;;4.75;1.80;;;18.60;64.50;;;;;;5113171;28;20649;-63
2023/10/21 04:07:28;;;;;;;4.70;1.50;;;18.60;64.50;;;;;;5112466;28;20659;-62
2023/10/21 04:09:55;;;;;;;5.72;1.65;;;18.60;64.40;;;;;;5112972;28;20755;-63
2023/10/21 04:12:22;;;;;;;5.03;1.40;;;18.60;64.50;;;;;;5112721;28;20195;-63
2023/10/21 04:14:49;;;;;;;3.10;1.20;;;18.60;64.40;;;;;;5112323;28;20236;-63
2023/10/21 04:17:18;;;;;;;5.57;1.65;;;18.60;64.50;;;;;;5112875;28;20284;-61
2023/10/21 04:19:45;;;;;;;4.32;1.48;;;18.50;64.30;;;;;;5112027;28;20213;-62
2023/10/21 04:22:12;;;;;;;4.75;1.52;;;18.50;64.30;;;;;;5112265;28;20690;-63
2023/10/21 04:24:39;;;;;;;6.70;1.77;;;18.50;64.40;;;;;;5112654;28;20270;-62
2023/10/21 04:27:06;;;;;;;3.50;1.50;;;18.50;64.40;;;;;;5112735;28;20181;-62
2023/10/21 04:29:34;;;;;;;3.60;1.23;;;18.50;64.30;;;;;;5112289;28;20231;-62
2023/10/21 04:32:01;;;;;;;4.00;1.23;;;18.60;64.50;;;;;;5112593;28;20191;-62
2023/10/21 04:34:29;;;;;;;5.88;1.55;;;18.50;64.30;;;;;;5112113;28;20299;-62
2023/10/21 04:36:57;;;;;;;5.85;1.52;;;18.50;64.30;;;;;;5111970;28;20651;-61
2023/10/21 04:39:24;;;;;;;3.15;1.30;;;18.50;64.30;;;;;;5112652;28;20246;-63
2023/10/21 04:41:51;;;;;;;3.63;1.40;;;18.50;64.30;;;;;;5112563;28;20185;-62
2023/10/21 04:44:19;;;;;;;4.10;1.23;;;18.50;64.40;;;;;;5112247;28;20217;-60
2023/10/21 04:46:46;;;;;;;6.70;1.58;;;18.50;65.20;;;;;;5112426;28;20213;-63
2023/10/21 04:49:13;;;;;;;5.10;1.58;;;18.60;64.40;;;;;;5112526;28;20185;-62
2023/10/21 04:51:42;;;;;;;5.72;1.67;;;18.50;64.30;;;;;;5112331;28;20199;-62
2023/10/21 04:54:09;;;;;;;4.13;1.25;;;18.50;64.30;;;;;;5112567;28;20228;-63
2023/10/21 04:56:36;;;;;;;3.72;1.30;;;18.50;64.30;;;;;;5112345;28;20217;-62
2023/10/21 04:59:03;;;;;;;4.95;1.70;;;18.50;64.30;;;;;;5112054;28;20276;-59
2023/10/21 05:01:30;;;;;;;7.22;1.40;;;18.50;64.30;;;;;;5112016;28;20236;-63
2023/10/21 05:03:57;;;;;;;5.55;1.40;;;18.50;64.40;;;;;;5112672;28;20217;-62
2023/10/21 05:06:23;;;;;;;3.45;1.20;;;18.50;64.40;;;;;;5112255;28;20218;-63
2023/10/21 05:08:52;;;;;;;3.95;1.30;;;18.50;64.30;;;;;;5112001;28;20276;-61
2023/10/21 05:11:19;;;;;;;3.13;1.30;;;18.50;64.40;;;;;;5112097;28;20266;-60
2023/10/21 05:13:46;;;;;;;4.78;1.20;;;18.50;64.40;;;;;;5111973;28;20686;-59
2023/10/21 05:16:13;;;;;;;4.60;1.40;;;18.50;64.30;;;;;;5111626;28;20312;-63
2023/10/21 05:18:40;;;;;;;3.45;1.58;;;18.50;65.10;;;;;;5111929;28;20276;-63
2023/10/21 05:21:08;;;;;;;4.07;1.25;;;18.50;64.30;;;;;;5112083;28;20659;-63
2023/10/21 05:23:35;;;;;;;4.50;1.52;;;18.50;64.30;;;;;;5111953;28;20218;-61
2023/10/21 05:26:03;;;;;;;3.40;1.20;;;18.50;64.40;;;;;;5112321;28;20274;-63
2023/10/21 05:28:31;;;;;;;2.72;1.17;;;18.50;64.40;;;;;;5112366;28;20228;-63
2023/10/21 05:30:58;;;;;;;5.05;1.30;;;18.50;64.30;;;;;;5112221;28;20446;-62
2023/10/21 05:33:25;;;;;;;2.72;1.20;;;18.50;64.40;;;;;;5115447;28;20193;-60
2023/10/21 05:35:52;;;;;;;2.72;1.45;;;18.50;64.30;;;;;;5115718;28;20323;-63
2023/10/21 05:38:19;;;;;;;5.80;1.40;;;18.50;64.30;;;;;;5115378;28;20270;-63
2023/10/21 05:40:46;;;;;;;4.60;1.08;;;18.50;64.40;;;;;;5115371;28;20223;-63
2023/10/21 05:43:14;;;;;;;3.90;1.42;;;18.50;64.30;;;;;;5115551;28;20621;-63
2023/10/21 05:45:42;;;;;;;3.55;1.10;;;18.50;64.40;;;;;;5115473;28;20251;-62
2023/10/21 05:48:09;;;;;;;3.97;1.30;;;18.50;64.30;;;;;;5115380;28;20192;-64
2023/10/21 05:50:36;;;;;;;1.35;0.80;;;18.50;64.40;;;;;;5115511;28;20241;-63
2023/10/21 05:53:04;;;;;;;5.25;1.10;;;18.50;64.30;;;;;;5114618;28;20221;-62
2023/10/21 05:55:31;;;;;;;3.78;1.60;;;18.50;64.40;;;;;;5115414;28;20229;-63
2023/10/21 05:57:58;;;;;;;3.38;1.00;;;18.50;64.30;;;;;;5114978;28;20216;-62
2023/10/21 06:00:27;;;;;;;2.55;1.05;;;18.50;64.30;;;;;;5114725;28;20300;-63
2023/10/21 06:02:54;;;;;;;4.35;1.33;;;18.50;64.30;;;;;;5114800;28;20185;-63
2023/10/21 06:05:21;;;;;;;4.03;1.10;;;18.50;64.40;;;;;;5115142;28;20299;-62
2023/10/21 06:07:48;;;;;;;3.13;1.13;;;18.50;64.40;;;;;;5114842;28;20598;-63
2023/10/21 06:10:16;;;;;;;1.80;1.05;;;18.50;64.40;;;;;;5115093;28;20295;-62
2023/10/21 06:12:43;;;;;;;3.25;1.30;;;18.50;64.30;;;;;;5114971;28;20270;-63
2023/10/21 06:15:11;;;;;;;2.35;1.10;;;18.50;64.40;;;;;;5114610;28;20237;-61
2023/10/21 06:17:39;;;;;;;3.22;1.17;;;18.50;64.40;;;;;;5114724;28;20181;-63
2023/10/21 06:20:08;;;;;;;3.17;0.95;;;18.50;64.40;;;;;;5114574;28;20308;-62
2023/10/21 06:22:35;;;;;;;3.95;1.00;;;18.50;64.30;;;;;;5114502;28;20195;-62
2023/10/21 06:25:02;;;;;;;2.70;1.05;;;18.50;64.40;;;;;;5114727;28;20290;-60
2023/10/21 06:27:29;;;;;;;1.70;1.00;;;18.50;65.10;;;;;;5114489;28;20182;-63
2023/10/21 06:29:56;;;;;;;1.35;0.82;;;18.50;64.30;;;;;;5114058;28;20212;-62
2023/10/21 06:32:23;;;;;;;3.00;1.13;;;18.50;64.40;;;;;;5114297;28;20638;-62
2023/10/21 06:34:52;;;;;;;3.33;1.15;;;18.50;64.30;;;;;;5114187;28;20759;-62
2023/10/21 06:37:19;;;;;;;3.38;1.33;;;18.50;64.30;;;;;;5114254;28;20192;-64
2023/10/21 06:39:46;;;;;;;1.75;1.25;;;18.50;64.40;;;;;;5114477;28;20221;-63
2023/10/21 06:42:13;;;;;;;3.50;1.05;;;18.50;64.40;;;;;;5114278;28;20625;-64
2023/10/21 06:44:40;;;;;;;3.45;1.30;;;18.50;64.40;;;;;;5114238;28;20197;-62
2023/10/21 06:47:07;;;;;;;1.67;0.95;;;18.50;64.30;;;;;;5114341;28;20242;-63
2023/10/21 06:49:34;;;;;;;3.72;1.23;;;18.50;64.40;;;;;;5114223;28;20272;-64
2023/10/21 06:52:03;;;;;;;2.35;0.93;;;18.50;64.40;;;;;;5113869;28;20276;-62
2023/10/21 06:54:30;;;;;;;2.40;0.88;;;18.50;64.30;;;;;;5114128;28;20200;-63
2023/10/21 06:56:57;;;;;;;2.67;1.08;;;18.50;64.40;;;;;;5114163;28;20225;-63
2023/10/21 06:59:24;;;;;;;3.40;1.00;;;18.50;64.40;;;;;;5113667;28;20185;-61
2023/10/21 07:01:51;;;;;;;2.00;0.90;;;18.50;65.10;;;;;;5113654;28;20587;-61
2023/10/21 07:04:18;;;;;;;2.92;1.17;;;18.50;64.40;;;;;;5114184;28;20193;-61
2023/10/21 07:06:48;;;;;;;2.13;1.00;;;18.50;64.30;;;;;;5113350;28;20252;-63
2023/10/21 07:09:16;;;;;;;3.47;1.20;;;18.50;64.40;;;;;;5113601;28;20186;-61
2023/10/21 07:11:43;;;;;;;1.55;0.88;;;18.50;64.30;;;;;;5113995;28;20305;-62
2023/10/21 07:14:12;;;;;;;2.55;1.20;;;18.50;64.40;;;;;;5113072;28;20638;-63
2023/10/21 07:16:40;;;;;;;1.92;1.23;;;18.40;64.30;;;;;;5113415;28;20675;-64
2023/10/21 07:19:07;;;;;;;3.40;1.17;;;18.40;64.30;;;;;;5113467;28;20211;-63
2023/10/21 07:21:34;;;;;;;2.78;0.90;;;18.40;64.30;;;;;;5113564;28;20249;-62
2023/10/21 07:24:02;;;;;;;3.38;1.30;;;18.40;64.30;;;;;;5113489;28;20217;-63
2023/10/21 07:26:30;;;;;;;1.95;1.08;;;18.50;64.40;;;;;;5113713;28;20248;-63
2023/10/21 07:28:58;;;;;;;3.42;1.00;;;18.40;64.30;;;;;;5113141;28;20264;-61
2023/10/21 07:31:24;;;;;;;1.55;1.10;;;18.40;64.30;;;;;;5113558;28;20616;-64
2023/10/21 07:33:52;;;;;;;2.85;1.00;;;18.40;64.30;;;;;;5113252;28;20189;-63
2023/10/21 07:36:19;;;;;;;4.28;1.15;;;18.40;64.30;;;;;;5112663;28;20698;-63
2023/10/21 07:38:46;;;;;;;2.55;1.05;;;18.50;64.30;;;;;;5113536;28;20268;-63
2023/10/21 07:41:13;;;;;;;2.65;1.20;;;18.40;64.30;;;;;;5113434;28;20353;-64
2023/10/21 07:43:41;;;;;;;3.33;1.20;;;18.40;64.60;;;;;;5112884;28;20186;-64
2023/10/21 07:46:11;;;;;;;3.38;1.10;;;18.40;64.30;;;;;;5113318;28;20304;-63
2023/10/21 07:48:39;;;;;;;3.05;1.20;;;18.40;64.30;;;;;;5113164;28;20224;-64
2023/10/21 07:51:06;;;;;;;2.35;1.10;;;18.40;64.30;;;;;;5112903;28;20213;-63
2023/10/21 07:53:34;;;;;;;5.60;1.10;;;18.40;64.30;;;;;;5112400;28;20647;-63
2023/10/21 07:56:01;;;;;;;1.92;1.08;;;18.40;64.30;;;;;;5112571;28;20714;-63
2023/10/21 07:58:28;;;;;;;2.95;1.20;;;18.40;64.30;;;;;;5112561;28;20185;-63
2023/10/21 08:00:57;;;;;;;3.70;1.60;;;18.40;64.30;;;;;;5112830;28;20818;-62
2023/10/21 08:03:24;;;;;;;5.90;1.30;;;18.40;64.30;;;;;;5112830;28;20219;-62
2023/10/21 08:05:51;;;;;;;3.75;1.17;;;18.40;64.30;;;;;;5112608;28;20296;-63
2023/10/21 08:08:18;;;;;;;1.75;1.00;;;18.40;64.30;;;;;;5112900;28;20181;-63
2023/10/21 08:10:45;;;;;;;3.17;1.00;;;18.40;64.30;;;;;;5113191;28;20251;-63
2023/10/21 08:13:12;;;;;;;2.65;1.15;;;18.40;64.30;;;;;;5112334;28;20189;-63
2023/10/21 08:15:38;;;;;;;4.05;1.08;;;18.40;65.10;;;;;;5112754;28;20229;-63
2023/10/21 08:18:07;;;;;;;4.18;1.40;;;18.40;64.30;;;;;;5112467;28;20193;-62
2023/10/21 08:20:34;;;;;;;4.03;1.30;;;18.40;64.30;;;;;;5112309;28;20653;-62
2023/10/21 08:23:01;;;;;;;3.30;1.10;;;18.40;64.30;;;;;;5112889;28;20221;-63
2023/10/21 08:25:28;;;;;;;2.60;1.30;;;18.40;64.30;;;;;;5112414;28;20370;-62
2023/10/21 08:27:54;;;;;;;2.97;1.20;;;18.40;64.30;;;;;;5112332;28;20276;-63
2023/10/21 08:30:21;;;;;;;2.25;1.15;;;18.40;64.30;;;;;;5112704;28;20249;-63
2023/10/21 08:32:49;;;;;;;2.88;1.10;;;18.40;64.30;;;;;;5112320;28;20185;-63
2023/10/21 08:35:17;;;;;;;2.78;1.05;;;18.40;64.30;;;;;;5112036;28;20589;-63
2023/10/21 08:37:44;;;;;;;3.63;1.20;;;18.40;64.30;;;;;;5112296;28;20714;-63
2023/10/21 08:40:12;;;;;;;3.00;1.25;;;18.40;64.30;;;;;;5112641;28;20213;-63
2023/10/21 08:42:39;;;;;;;4.28;1.35;;;18.40;64.30;;;;;;5112166;28;20189;-63
2023/10/21 08:45:09;;;;;;;2.55;1.10;;;18.40;64.30;;;;;;5112488;28;20217;-63
2023/10/21 08:47:38;;;;;;;1.67;1.02;;;18.40;64.30;;;;;;5112611;28;20185;-62
2023/10/21 08:50:07;;;;;;;2.50;1.20;;;18.40;64.30;;;;;;5112097;28;20308;-62
2023/10/21 08:52:37;;;;;;;3.42;1.30;;;18.40;64.30;;;;;;5112529;28;20192;-63
2023/10/21 08:55:08;;;;;;;2.13;0.95;;;18.40;64.30;;;;;;5112179;28;20242;-63
2023/10/21 08:57:36;;;;;;;4.13;1.45;;;18.40;64.30;;;;;;5112103;28;20557;-63
2023/10/21 09:00:05;;;;;;;2.85;1.10;;;18.40;64.30;;;;;;5112426;28;20190;-63
2023/10/21 09:02:32;;;;;;;5.00;1.52;;;18.40;64.30;;;;;;5111996;28;20237;-63
2023/10/21 09:04:59;;;;;;;3.65;1.42;;;18.40;65.10;;;;;;5112546;28;20189;-63
2023/10/21 09:07:43;;;;;;;2.30;1.20;;;18.40;64.30;;;;;;5115974;28;20633;-63
2023/10/21 09:10:12;;;;;;;2.35;1.13;;;18.40;64.30;;;;;;5116117;28;20213;-63
2023/10/21 09:12:39;;;;;;;3.67;1.10;;;18.40;64.30;;;;;;5115851;28;20203;-63
2023/10/21 09:15:07;;;;;;;3.60;1.33;;;18.40;64.30;;;;;;5115988;28;20189;-64
2023/10/21 09:17:36;;;;;;;4.00;1.00;;;18.40;64.30;;;;;;5115984;28;20224;-62
2023/10/21 09:20:07;;;;;;;4.18;1.52;;;18.40;64.30;;;;;;5115319;28;20190;-62
2023/10/21 09:22:35;;;;;;;4.40;1.25;;;18.40;64.30;;;;;;5116246;28;20181;-62
2023/10/21 09:25:14;;;;;;;2.78;1.58;;;18.40;64.30;;;;;;5115943;28;20193;-63
2023/10/21 09:27:41;;;;;;;4.28;1.45;;;18.40;64.30;;;;;;5115500;28;20211;-63
2023/10/21 09:30:14;;;;;;;5.15;1.10;;;18.40;64.30;;;;;;5115547;28;20216;-63
2023/10/21 09:32:42;;;;;;;3.75;1.33;;;18.40;64.30;;;;;;5115795;28;20238;-63
2023/10/21 09:35:18;;;;;;;3.78;1.20;;;18.40;65.10;;;;;;5115340;28;20434;-63
2023/10/21 09:37:45;;;;;;;5.10;1.15;;;18.40;64.30;;;;;;5115350;28;20251;-62
2023/10/21 09:40:13;;;;;;;3.35;1.20;;;18.40;64.30;;;;;;5115325;28;20658;-63
2023/10/21 09:42:42;;;;;;;3.20;1.17;;;18.40;64.30;;;;;;5115321;28;20289;-64
2023/10/21 09:45:11;;;;;;;2.88;1.10;;;18.40;64.30;;;;;;5115534;28;20188;-64
2023/10/21 09:47:40;;;;;;;3.97;1.52;;;18.40;64.30;;;;;;5115722;28;20201;-63
2023/10/21 09:50:10;;;;;;;3.45;1.35;;;18.40;64.30;;;;;;5114920;28;20581;-64
2023/10/21 09:52:44;;;;;;;3.05;1.20;;;18.40;64.30;;;;;;5115398;28;20196;-63
2023/10/21 09:55:13;;;;;;;2.72;0.80;;;18.40;64.30;;;;;;5114957;28;20217;-64
2023/10/21 09:57:42;;;;;;;2.20;1.10;;;18.40;64.30;;;;;;5115280;28;20224;-63
2023/10/21 10:00:10;;;;;;;4.68;1.08;;;18.40;64.30;;;;;;5115306;28;20298;-63
2023/10/21 10:02:38;;;;;;;4.28;1.20;;;18.40;64.30;;;;;;5114301;28;20229;-62
2023/10/21 10:05:07;;;;;;;2.60;1.25;;;18.40;65.10;;;;;;5115116;28;20243;-63
2023/10/21 10:07:36;;;;;;;2.92;1.00;;;18.40;64.30;;;;;;5115057;28;20191;-62
2023/10/21 10:10:04;;;;;;;4.53;1.17;;;18.40;64.30;;;;;;5114635;28;20258;-63
2023/10/21 10:12:37;;;;;;;5.20;1.35;;;18.40;64.30;;;;;;5114747;28;20185;-62
2023/10/21 10:15:32;;;;;;;3.88;1.30;;;18.40;64.30;;;;;;5114957;28;20204;-64
2023/10/21 10:18:00;;;;;;;1.30;0.75;;;18.40;64.30;;;;;;5113819;28;20249;-62
2023/10/21 10:20:27;;;;;;;2.97;0.93;;;18.40;64.30;;;;;;5114875;28;20300;-63
2023/10/21 10:23:03;;;;;;;3.80;1.15;;;18.40;64.30;;;;;;5114748;28;20276;-63
2023/10/21 10:25:35;;;;;;;1.75;1.13;;;18.40;64.30;;;;;;5114438;28;20607;-62
2023/10/21 10:28:07;;;;;;;2.33;1.30;;;18.40;64.30;;;;;;5114488;28;20216;-63
2023/10/21 10:30:35;;;;;;;3.22;1.15;;;18.40;64.30;;;;;;5114384;28;20258;-64
2023/10/21 10:33:07;;;;;;;3.30;1.20;;;18.40;64.30;;;;;;5113848;28;20225;-63
2023/10/21 10:35:37;;;;;;;5.00;1.60;;;18.40;64.30;;;;;;5114635;28;20213;-63
2023/10/21 10:38:17;;;;;;;4.03;1.30;;;18.40;64.30;;;;;;5114213;28;20253;-63
2023/10/21 10:40:45;;;;;;;2.85;1.08;;;18.40;64.30;;;;;;5114215;28;20248;-62
2023/10/21 10:43:13;;;;;;;4.72;1.38;;;18.30;64.20;;;;;;5114052;28;20352;-62
2023/10/21 10:45:41;;;;;;;6.53;1.27;;;18.40;64.30;;;;;;5114460;28;20271;-63
2023/10/21 10:48:08;;;;;;;3.38;1.38;;;18.30;64.20;;;;;;5113958;28;20228;-63
2023/10/21 10:50:37;;;;;;;2.42;1.10;;;18.40;64.30;;;;;;5114330;28;20249;-61
2023/10/21 10:53:15;;;;;;;2.95;1.10;;;18.40;64.30;;;;;;5114221;28;20186;-63
2023/10/21 10:55:44;;;;;;;2.72;1.38;;;18.40;64.30;;;;;;5113951;28;20240;-65
2023/10/21 10:58:13;;;;;;;4.53;1.40;;;18.40;64.30;;;;;;5114089;28;20252;-59
2023/10/21 11:00:40;;;;;;;1.58;1.15;;;18.40;64.30;;;;;;5113833;28;20249;-63
2023/10/21 11:03:07;;;;;;;3.70;0.93;;;18.40;64.30;;;;;;5113619;28;20196;-63
2023/10/21 11:05:37;;;;;;;3.35;1.05;;;18.40;65.10;;;;;;5113831;28;20213;-63
2023/10/21 11:08:07;;;;;;;5.53;1.52;;;18.40;64.30;;;;;;5113642;28;20193;-62
2023/10/21 11:10:34;;;;;;;4.15;1.13;;;18.40;64.30;;;;;;5113207;28;20217;-62
2023/10/21 11:13:04;;;;;;;3.78;1.20;;;18.30;64.20;;;;;;5113757;28;20182;-62
2023/10/21 11:15:41;;;;;;;3.72;1.27;;;18.40;64.30;;;;;;5113828;28;20627;-62
2023/10/21 11:18:08;;;;;;;4.10;1.50;;;18.40;64.30;;;;;;5113378;28;20220;-62
2023/10/21 11:20:35;;;;;;;2.35;1.10;;;18.40;64.30;;;;;;5113724;28;20296;-63
2023/10/21 11:23:11;;;;;;;3.20;1.42;;;18.30;64.20;;;;;;5113370;28;20203;-64
2023/10/21 11:25:38;;;;;;;2.83;1.13;;;18.40;64.30;;;;;;5113281;28;20227;-63
2023/10/21 11:28:06;;;;;;;3.92;1.23;;;18.40;64.30;;;;;;5113319;28;20268;-58
2023/10/21 11:30:35;;;;;;;4.47;1.23;;;18.40;64.30;;;;;;5112855;28;20223;-63
2023/10/21 11:33:09;;;;;;;2.72;1.27;;;18.40;64.40;;;;;;5112804;28;20623;-64
2023/10/21 11:35:38;;;;;;;4.22;1.60;;;18.40;64.40;;;;;;5113409;28;20303;-63
2023/10/21 11:38:05;;;;;;;3.47;1.45;;;18.40;64.40;;;;;;5113025;28;20249;-64
2023/10/21 11:40:33;;;;;;;3.83;1.42;;;18.40;64.40;;;;;;5112997;28;20213;-63
2023/10/21 11:43:04;;;;;;;2.40;1.10;;;18.30;64.40;;;;;;5113011;28;20224;-64
2023/10/21 11:45:34;;;;;;;3.20;1.55;;;18.40;64.60;;;;;;5110427;28;20217;-64
2023/10/21 11:48:08;;;;;;;2.03;1.00;;;18.40;64.50;;;;;;5107611;28;20195;-62
2023/10/21 11:50:36;;;;;;;4.35;1.40;;;18.40;65.30;;;;;;5106423;28;20245;-58
2023/10/21 11:53:05;;;;;;;3.33;1.20;;;18.40;64.70;;;;;;5098739;28;20225;-64
2023/10/21 11:56:00;;;;;;;2.20;1.20;;;18.40;64.80;;;;;;5106205;28;20200;-56
2023/10/21 22:35:10;;;;;;;3.10;2.00;;;18.20;62.30;;;;;;5106838;28;20290;-61
2023/10/21 22:37:37;;;;;;;3.28;1.63;;;18.10;62.30;;;;;;5097817;28;20214;-62
2023/10/21 22:40:14;;;;;;;3.35;1.80;;;18.10;62.20;;;;;;5110545;28;20213;-63
2023/10/21 22:42:41;;;;;;;3.58;1.67;;;18.10;62.20;;;;;;5101563;28;20238;-64
2023/10/21 22:45:09;;;;;;;4.10;2.03;;;18.20;62.30;;;;;;5101889;28;20890;-64
2023/10/21 22:47:36;;;;;;;3.28;1.92;;;18.20;62.30;;;;;;5109202;28;20225;-64
2023/10/21 22:50:04;;;;;;;2.50;1.63;;;18.10;62.20;;;;;;5097034;28;20304;-62
2023/10/21 22:52:32;;;;;;;3.33;1.70;;;18.20;62.20;;;;;;5101294;28;20226;-63
2023/10/21 22:54:59;;;;;;;3.25;1.77;;;18.20;62.20;;;;;;5103378;28;20233;-61
2023/10/21 22:57:26;;;;;;;4.90;2.17;;;18.20;62.20;;;;;;5107007;28;20299;-64
2023/10/21 22:59:54;;;;;;;4.18;2.10;;;18.20;62.20;;;;;;5096249;28;20681;-64
2023/10/21 23:02:22;;;;;;;3.05;1.67;;;18.20;62.20;;;;;;5108233;28;20190;-64
2023/10/21 23:04:49;;;;;;;4.70;1.92;;;18.20;62.20;;;;;;5104658;28;20245;-62
2023/10/21 23:07:17;;;;;;;3.70;1.70;;;18.20;62.20;;;;;;5106033;28;20182;-62
2023/10/21 23:09:49;;;;;;;6.28;2.20;;;18.20;62.20;;;;;;5096519;28;20217;-63
2023/10/21 23:12:16;;;;;;;3.72;1.90;;;18.20;62.10;;;;;;5097693;28;20225;-64
2023/10/21 23:14:43;;;;;;;3.97;1.85;;;18.20;62.10;;;;;;5104311;28;20220;-62
2023/10/21 23:17:12;;;;;;;5.40;1.90;;;18.20;62.10;;;;;;5104863;28;20202;-63
2023/10/21 23:19:41;;;;;;;4.07;1.67;;;18.20;62.20;;;;;;5096720;28;20253;-60
2023/10/21 23:22:08;;;;;;;3.25;1.52;;;18.20;62.10;;;;;;5109270;28;20238;-64
2023/10/21 23:24:38;;;;;;;3.33;1.92;;;18.20;62.10;;;;;;5100116;28;20307;-64
2023/10/21 23:27:06;;;;;;;2.20;1.40;;;18.20;62.10;;;;;;5101889;28;20938;-63
2023/10/21 23:29:34;;;;;;;2.88;1.90;;;18.20;62.10;;;;;;5107500;28;20770;-62